Hangaard, Minnesota
Current Conditions -  °F | °C
As of 5:15 PM on Saturday 25 Oct 2014 (Local Time) from KFSE Reporting Station
Clear Clear  
Wind Chill: 55°   Ceiling: Unl
Heat Index: 55°   Visibility: 10mi
Dew Point: 25°   Wind: 13mph
Humidity: 31%   Direction: 290°WNW
Pressure: 30.05"   Gusts: 20mph
Location:  47.8469°N, 95.4815°W
Report Text: KFSE 252215Z AUTO 29011G17KT 10SM CLR 13/M04 A3005 RMK AO2
Loading
Personal Weather Stations






























Interactive Weather Map
Tropical Storm Tracking
New forecast layout! Learn more

10-Day Weather Forecast

Advertisements
Track Severe Weather on mobile